createdAt,value
2018-08-13T00:01:46.056Z,59.30
2018-08-13T00:04:15.258Z,59.50
2018-08-13T00:06:44.501Z,59.60
2018-08-13T00:09:18.008Z,59.40
2018-08-13T00:11:47.173Z,59.60
2018-08-13T00:14:16.350Z,59.50
2018-08-13T00:16:45.506Z,59.30
2018-08-13T00:19:14.765Z,59.50
2018-08-13T00:21:44.030Z,60.20
2018-08-13T00:24:13.175Z,60.00
2018-08-13T00:26:42.353Z,60.10
2018-08-13T00:29:11.487Z,60.60
2018-08-13T00:31:40.682Z,60.40
2018-08-13T00:34:09.880Z,60.70
2018-08-13T00:36:39.024Z,61.60
2018-08-13T00:39:10.523Z,62.30
2018-08-13T00:41:40.181Z,62.60
2018-08-13T00:44:09.367Z,62.80
2018-08-13T00:46:38.557Z,63.10
2018-08-13T00:49:07.773Z,63.30
2018-08-13T00:51:36.920Z,63.00
2018-08-13T00:54:06.117Z,62.60
2018-08-13T00:56:35.292Z,62.30
2018-08-13T00:59:04.513Z,62.40
2018-08-13T01:01:33.731Z,62.70
2018-08-13T01:04:02.888Z,63.00
2018-08-13T01:06:38.942Z,63.70
2018-08-13T01:09:09.130Z,62.50
2018-08-13T01:11:38.289Z,61.60
2018-08-13T01:14:07.499Z,62.20
2018-08-13T01:16:36.638Z,62.50
2018-08-13T01:19:05.901Z,62.60
2018-08-13T01:21:35.078Z,62.60
2018-08-13T01:24:04.641Z,62.30
2018-08-13T01:26:33.784Z,62.50
2018-08-13T01:29:03.041Z,62.20
2018-08-13T01:31:32.230Z,62.50
2018-08-13T01:34:01.379Z,62.80
2018-08-13T01:36:30.584Z,63.70
2018-08-13T01:38:59.768Z,63.50
2018-08-13T01:41:28.920Z,63.10
2018-08-13T01:43:58.098Z,62.90
2018-08-13T01:46:27.245Z,63.40
2018-08-13T01:48:56.354Z,64.20
2018-08-13T01:51:25.519Z,64.80
2018-08-13T01:53:54.675Z,64.80
2018-08-13T01:56:23.917Z,65.50
2018-08-13T01:58:53.112Z,65.30
2018-08-13T02:01:22.354Z,65.00
2018-08-13T02:03:51.429Z,64.70
2018-08-13T02:06:20.694Z,64.50
2018-08-13T02:08:49.811Z,64.60
2018-08-13T02:11:19.143Z,64.60
2018-08-13T02:13:48.273Z,65.10
2018-08-13T02:16:17.439Z,65.40
2018-08-13T02:18:46.580Z,65.30
2018-08-13T02:21:15.754Z,65.40
2018-08-13T02:23:44.887Z,65.90
2018-08-13T02:26:14.282Z,65.00
2018-08-13T02:28:43.418Z,64.50
2018-08-13T02:31:12.911Z,64.50
2018-08-13T02:33:42.121Z,64.30
2018-08-13T02:36:11.289Z,64.20
2018-08-13T02:38:40.450Z,63.80
2018-08-13T02:41:09.674Z,63.70
2018-08-13T02:43:39.034Z,64.10
2018-08-13T02:46:08.281Z,64.40
2018-08-13T02:48:37.476Z,64.20
2018-08-13T02:51:06.682Z,64.00
2018-08-13T02:53:36.041Z,64.90
2018-08-13T02:56:05.264Z,65.50
2018-08-13T02:58:34.465Z,65.90
2018-08-13T03:01:03.657Z,66.00
2018-08-13T03:03:32.857Z,66.20
2018-08-13T03:06:02.033Z,66.30
2018-08-13T03:08:31.208Z,66.40
2018-08-13T03:11:00.393Z,66.70
2018-08-13T03:13:29.543Z,66.90
2018-08-13T03:15:58.682Z,67.60
2018-08-13T03:18:27.857Z,68.10
2018-08-13T03:20:57.041Z,68.40
2018-08-13T03:23:26.279Z,68.00
2018-08-13T03:25:55.438Z,67.80
2018-08-13T03:28:24.638Z,67.20
2018-08-13T03:30:53.927Z,66.80
2018-08-13T03:33:23.223Z,66.80
2018-08-13T03:35:52.344Z,66.50
2018-08-13T03:38:21.506Z,66.40
2018-08-13T03:40:50.670Z,66.90
2018-08-13T03:43:19.853Z,66.50
2018-08-13T03:45:49.021Z,67.20
2018-08-13T03:48:18.197Z,67.70
2018-08-13T03:50:47.346Z,67.70
2018-08-13T03:53:16.572Z,67.50
2018-08-13T03:55:45.757Z,67.60
2018-08-13T03:58:15.009Z,68.10
2018-08-13T04:00:44.193Z,67.60
2018-08-13T04:03:13.365Z,67.70
2018-08-13T04:05:42.542Z,67.80
2018-08-13T04:08:11.841Z,67.10
2018-08-13T04:10:41.056Z,67.40
2018-08-13T04:13:10.210Z,67.30
2018-08-13T04:15:39.403Z,67.30
2018-08-13T04:18:08.977Z,67.20
2018-08-13T04:20:38.172Z,67.30
2018-08-13T04:23:07.340Z,67.50
2018-08-13T04:25:36.497Z,68.10
2018-08-13T04:28:05.753Z,68.30
2018-08-13T04:30:34.881Z,68.20
2018-08-13T04:33:04.101Z,68.20
2018-08-13T04:35:33.316Z,68.50
2018-08-13T04:38:02.475Z,68.80
2018-08-13T04:40:31.651Z,69.10
2018-08-13T04:43:00.894Z,69.00
2018-08-13T04:45:30.037Z,69.00
2018-08-13T04:47:59.240Z,68.70
2018-08-13T04:50:28.458Z,68.80
2018-08-13T04:52:57.664Z,68.50
2018-08-13T04:55:26.900Z,68.70
2018-08-13T04:57:56.081Z,68.40
2018-08-13T05:00:25.278Z,69.50
2018-08-13T05:02:54.392Z,69.90
2018-08-13T05:05:23.549Z,71.10
2018-08-13T05:07:52.683Z,70.80
2018-08-13T05:10:21.874Z,70.60
2018-08-13T05:12:51.037Z,72.00
2018-08-13T05:15:20.182Z,72.30
2018-08-13T05:17:49.451Z,71.10
2018-08-13T05:20:18.643Z,73.90
2018-08-13T05:22:47.769Z,71.30
2018-08-13T05:25:16.991Z,69.70
2018-08-13T05:27:46.140Z,70.70
2018-08-13T05:30:15.349Z,71.00
2018-08-13T05:32:44.512Z,71.10
2018-08-13T05:35:13.732Z,70.50
2018-08-13T05:37:42.881Z,69.90
2018-08-13T05:40:12.093Z,69.90
2018-08-13T05:42:41.261Z,69.00
2018-08-13T05:45:10.903Z,69.30
2018-08-13T05:47:40.293Z,69.00
2018-08-13T05:50:10.756Z,68.00
2018-08-13T05:52:39.977Z,68.40
2018-08-13T05:55:09.807Z,68.50
2018-08-13T05:57:38.971Z,68.40
2018-08-13T06:00:10.434Z,68.60
2018-08-13T06:02:40.816Z,68.40
2018-08-13T06:05:11.154Z,68.40
2018-08-13T06:07:41.031Z,68.60
2018-08-13T06:10:11.371Z,68.40
2018-08-13T06:12:41.113Z,68.00
2018-08-13T06:15:11.982Z,69.50
2018-08-13T06:17:41.205Z,71.40
2018-08-13T06:20:12.217Z,69.40
2018-08-13T06:22:42.396Z,69.20
2018-08-13T06:25:12.460Z,68.80
2018-08-13T06:27:41.651Z,69.30
2018-08-13T06:30:12.929Z,70.10
2018-08-13T06:32:42.574Z,70.80
2018-08-13T06:35:12.993Z,69.30
2018-08-13T06:37:43.114Z,68.50
2018-08-13T06:40:12.793Z,68.00
2018-08-13T06:42:42.138Z,65.10
2018-08-13T06:45:11.588Z,63.70
2018-08-13T06:47:41.133Z,62.80
2018-08-13T06:50:12.815Z,62.20
2018-08-13T06:52:42.023Z,62.00
2018-08-13T06:55:11.210Z,62.50
2018-08-13T06:57:40.380Z,63.40
2018-08-13T07:00:14.182Z,63.70
2018-08-13T07:02:44.762Z,63.90
2018-08-13T07:05:15.903Z,64.00
2018-08-13T07:07:45.106Z,64.00
2018-08-13T07:10:15.792Z,62.70
2018-08-13T07:12:46.850Z,62.60
2018-08-13T07:15:16.568Z,62.60
2018-08-13T07:17:45.849Z,62.70
2018-08-13T07:20:16.619Z,62.70
2018-08-13T07:22:45.845Z,63.60
2018-08-13T07:25:15.018Z,62.60
2018-08-13T07:27:44.249Z,62.30
2018-08-13T07:30:14.429Z,62.50
2018-08-13T07:32:44.021Z,61.60
2018-08-13T07:35:13.241Z,61.50
2018-08-13T07:37:42.454Z,60.20
2018-08-13T07:40:14.250Z,59.40
2018-08-13T07:42:43.781Z,59.20
2018-08-13T07:45:13.083Z,59.40
2018-08-13T07:47:42.807Z,59.80
2018-08-13T07:50:13.609Z,60.10
2018-08-13T07:52:43.382Z,60.80
2018-08-13T07:55:13.306Z,61.30
2018-08-13T07:57:42.626Z,61.70
2018-08-13T08:00:14.113Z,61.80
2018-08-13T08:02:43.347Z,62.80
2018-08-13T08:05:12.681Z,62.70
2018-08-13T08:07:41.904Z,63.30
2018-08-13T08:10:14.142Z,64.40
2018-08-13T08:12:43.597Z,64.10
2018-08-13T08:15:14.758Z,64.60
2018-08-13T08:17:44.456Z,66.10
2018-08-13T08:20:13.695Z,67.80
2018-08-13T08:22:42.835Z,69.00
2018-08-13T08:25:16.527Z,71.20
2018-08-13T08:27:45.818Z,73.20
2018-08-13T08:30:15.149Z,75.30
2018-08-13T08:32:44.365Z,76.00
2018-08-13T08:35:17.142Z,76.50
2018-08-13T08:37:47.349Z,77.10
2018-08-13T08:40:21.550Z,76.70
2018-08-13T08:42:50.938Z,77.60
2018-08-13T08:45:23.953Z,79.20
2018-08-13T08:47:53.725Z,80.80
2018-08-13T08:50:23.127Z,81.50
2018-08-13T08:52:52.381Z,81.00
2018-08-13T08:55:21.739Z,81.40
2018-08-13T08:57:51.406Z,81.60
2018-08-13T09:00:22.637Z,81.00
2018-08-13T09:02:51.898Z,80.80
2018-08-13T09:05:21.220Z,81.20
2018-08-13T09:07:50.402Z,80.40
2018-08-13T09:10:19.725Z,79.50
2018-08-13T09:12:48.870Z,79.90
2018-08-13T09:15:18.292Z,79.80
2018-08-13T09:17:59.370Z,80.10
2018-08-13T09:20:39.782Z,80.80
2018-08-13T09:23:20.238Z,81.20
2018-08-13T09:26:00.793Z,81.00
2018-08-13T09:28:41.144Z,81.70
2018-08-13T09:31:22.539Z,82.40
2018-08-13T09:34:03.111Z,82.90
2018-08-13T09:36:32.928Z,83.40
2018-08-13T09:39:02.105Z,83.00
2018-08-13T09:41:31.308Z,81.90
2018-08-13T09:44:07.145Z,81.40
2018-08-13T09:46:36.408Z,80.50
2018-08-13T09:49:05.633Z,79.70
2018-08-13T09:51:34.877Z,79.10
2018-08-13T09:54:04.048Z,79.00
2018-08-13T09:56:33.266Z,79.70
2018-08-13T09:59:02.497Z,80.60
2018-08-13T10:01:31.730Z,80.60
2018-08-13T10:04:00.884Z,80.60
2018-08-13T10:06:30.205Z,80.80
2018-08-13T10:08:59.331Z,80.20
2018-08-13T10:11:28.518Z,79.60
2018-08-13T10:13:57.659Z,78.50
2018-08-13T10:16:26.947Z,79.80
2018-08-13T10:18:56.172Z,79.70
2018-08-13T10:21:25.381Z,79.90
2018-08-13T10:23:54.548Z,81.20
2018-08-13T10:26:23.748Z,80.70
2018-08-13T10:28:52.962Z,80.60
2018-08-13T10:31:22.390Z,81.00
2018-08-13T10:33:51.980Z,81.20
2018-08-13T10:36:21.274Z,81.40
2018-08-13T10:38:50.426Z,81.40
2018-08-13T10:41:19.666Z,80.70
2018-08-13T10:43:48.818Z,80.40
2018-08-13T10:46:18.237Z,80.50
2018-08-13T10:48:47.416Z,80.80
2018-08-13T10:51:16.624Z,81.20
2018-08-13T10:53:45.829Z,80.90
2018-08-13T10:56:15.081Z,81.10
2018-08-13T10:58:44.221Z,82.00
2018-08-13T11:01:13.596Z,82.60
2018-08-13T11:03:42.755Z,82.50
2018-08-13T11:06:12.003Z,82.50
2018-08-13T11:08:41.207Z,82.90
2018-08-13T11:11:10.366Z,84.00
2018-08-13T11:13:39.546Z,85.20
2018-08-13T11:16:08.820Z,84.90
2018-08-13T11:18:38.017Z,86.00
2018-08-13T11:21:07.224Z,86.40
2018-08-13T11:23:36.444Z,87.60
2018-08-13T11:26:05.700Z,87.80
2018-08-13T11:28:34.901Z,89.20
2018-08-13T11:31:04.126Z,88.00
2018-08-13T11:33:33.337Z,87.20
2018-08-13T11:36:02.572Z,87.20
2018-08-13T11:38:31.835Z,86.90
2018-08-13T11:41:00.938Z,86.00
2018-08-13T11:43:30.134Z,85.30
2018-08-13T11:45:59.321Z,84.40
2018-08-13T11:48:28.457Z,84.00
2018-08-13T11:50:57.661Z,83.90
2018-08-13T11:53:26.926Z,82.20
2018-08-13T11:55:56.109Z,82.30
2018-08-13T11:58:25.376Z,82.90
2018-08-13T12:00:54.493Z,83.00
2018-08-13T12:03:23.828Z,81.70
2018-08-13T12:05:53.019Z,81.40
2018-08-13T12:08:22.291Z,81.30
2018-08-13T12:10:51.453Z,81.70
2018-08-13T12:13:21.031Z,81.10
2018-08-13T12:15:50.225Z,82.40
2018-08-13T12:18:19.431Z,84.70
2018-08-13T12:20:48.593Z,84.70
2018-08-13T12:23:17.776Z,86.40
2018-08-13T12:25:46.949Z,86.70
2018-08-13T12:28:16.492Z,86.70
2018-08-13T12:30:45.632Z,86.40
2018-08-13T12:33:14.845Z,86.00
2018-08-13T12:35:44.045Z,86.30
2018-08-13T12:38:13.317Z,86.30
2018-08-13T12:40:42.613Z,85.80
2018-08-13T12:43:11.902Z,85.70
2018-08-13T12:45:41.172Z,86.00
2018-08-13T12:48:10.424Z,85.50
2018-08-13T12:50:39.673Z,84.90
2018-08-13T12:53:08.857Z,85.00
2018-08-13T12:55:38.077Z,85.50
2018-08-13T12:58:07.276Z,87.80
2018-08-13T13:00:36.473Z,87.60
2018-08-13T13:03:06.289Z,87.70
2018-08-13T13:05:35.433Z,89.20
2018-08-13T13:08:04.737Z,88.30
2018-08-13T13:10:33.914Z,88.60
2018-08-13T13:13:03.213Z,87.20
2018-08-13T13:15:32.490Z,87.40
2018-08-13T13:18:01.709Z,86.40
2018-08-13T13:20:31.032Z,86.60
2018-08-13T13:23:00.296Z,86.50
2018-08-13T13:25:29.603Z,86.20
2018-08-13T13:27:58.853Z,85.40
2018-08-13T13:30:28.093Z,83.30
2018-08-13T13:32:57.336Z,84.50
2018-08-13T13:35:26.635Z,82.30
2018-08-13T13:37:55.857Z,81.20
2018-08-13T13:40:25.164Z,80.90
2018-08-13T13:42:54.316Z,79.80
2018-08-13T13:45:23.574Z,79.30
2018-08-13T13:47:53.175Z,78.80
2018-08-13T13:50:22.479Z,78.70
2018-08-13T13:52:51.670Z,79.10
2018-08-13T13:55:20.835Z,77.90
2018-08-13T13:57:50.068Z,78.90
2018-08-13T14:00:22.735Z,78.30
2018-08-13T14:02:52.341Z,78.70
2018-08-13T14:05:23.506Z,79.10
2018-08-13T14:07:52.718Z,78.50
2018-08-13T14:10:22.604Z,78.00
2018-08-13T14:12:51.854Z,78.30
2018-08-13T14:15:24.965Z,77.70
2018-08-13T14:17:54.182Z,78.80
2018-08-13T14:20:23.381Z,77.90
2018-08-13T14:22:52.615Z,78.20
2018-08-13T14:25:24.088Z,77.50
2018-08-13T14:27:53.326Z,77.30
2018-08-13T14:30:24.143Z,77.70
2018-08-13T14:32:53.499Z,77.40
2018-08-13T14:35:23.593Z,77.40
2018-08-13T14:37:53.077Z,78.20
2018-08-13T14:40:22.491Z,78.00
2018-08-13T14:42:51.742Z,77.90
2018-08-13T14:45:21.075Z,78.10
2018-08-13T14:47:52.062Z,79.10
2018-08-13T14:50:21.400Z,79.50
2018-08-13T14:52:50.637Z,85.80
2018-08-13T14:55:21.342Z,91.30
2018-08-13T14:57:50.594Z,93.90
2018-08-13T15:00:22.727Z,96.20
2018-08-13T15:02:52.662Z,96.80
2018-08-13T15:05:21.883Z,96.70
2018-08-13T15:07:52.679Z,96.40
2018-08-13T15:10:23.942Z,96.40
2018-08-13T15:12:53.322Z,95.90
2018-08-13T15:15:22.612Z,96.00
2018-08-13T15:17:51.916Z,96.10
2018-08-13T15:20:25.964Z,95.00
2018-08-13T15:22:55.363Z,95.80
2018-08-13T15:25:24.845Z,95.90
2018-08-13T15:27:55.012Z,96.40
2018-08-13T15:30:24.857Z,96.20
2018-08-13T15:32:54.458Z,95.60
2018-08-13T15:35:23.667Z,96.40
2018-08-13T15:37:52.982Z,95.90
2018-08-13T15:40:22.234Z,95.50
2018-08-13T15:42:51.478Z,95.10
2018-08-13T15:45:21.913Z,96.30
2018-08-13T15:47:51.312Z,95.90
2018-08-13T15:50:21.636Z,96.20
2018-08-13T15:52:51.434Z,96.60
2018-08-13T15:55:20.649Z,96.20
2018-08-13T15:57:49.990Z,96.60
2018-08-13T16:00:22.948Z,95.80
2018-08-13T16:02:52.454Z,95.60
2018-08-13T16:05:21.980Z,96.20
2018-08-13T16:07:51.580Z,95.80
2018-08-13T16:10:20.947Z,96.10
2018-08-13T16:12:50.185Z,97.30
2018-08-13T16:15:19.836Z,97.80
2018-08-13T16:17:49.096Z,97.70
2018-08-13T16:20:20.033Z,97.90
2018-08-13T16:22:49.477Z,97.80
2018-08-13T16:25:18.898Z,98.00
2018-08-13T16:27:48.261Z,97.30
2018-08-13T16:30:21.085Z,98.20
2018-08-13T16:32:50.459Z,97.80
2018-08-13T16:35:20.303Z,96.90
2018-08-13T16:37:50.310Z,97.00
2018-08-13T16:40:20.045Z,97.20
2018-08-13T16:42:49.834Z,97.40
2018-08-13T16:45:21.410Z,97.40
2018-08-13T16:47:51.803Z,96.70
2018-08-13T16:50:25.736Z,97.20
2018-08-13T16:52:57.466Z,97.50
2018-08-13T16:55:28.525Z,97.40
2018-08-13T16:57:58.249Z,97.50
2018-08-13T17:00:28.554Z,96.80
2018-08-13T17:02:58.257Z,97.00
2018-08-13T17:05:28.518Z,96.70
2018-08-13T17:07:57.701Z,96.30
2018-08-13T17:10:28.119Z,96.60
2018-08-13T17:12:57.946Z,95.90
2018-08-13T17:15:29.842Z,96.20
2018-08-13T17:18:00.473Z,96.10
2018-08-13T17:20:39.656Z,96.00
2018-08-13T17:23:08.890Z,96.10
2018-08-13T17:25:38.249Z,95.80
2018-08-13T17:28:07.516Z,96.10
2018-08-13T17:30:36.681Z,96.10
2018-08-13T17:33:07.152Z,95.60
2018-08-13T17:35:37.793Z,94.90
2018-08-13T17:38:08.856Z,94.80
2018-08-13T17:40:38.133Z,95.10
2018-08-13T17:43:09.209Z,94.90
2018-08-13T17:45:38.463Z,94.40
2018-08-13T17:48:09.238Z,94.30
2018-08-13T17:50:38.454Z,94.30
2018-08-13T17:53:09.437Z,93.70
2018-08-13T17:55:45.240Z,93.90
2018-08-13T17:58:14.488Z,94.80
2018-08-13T18:00:44.663Z,94.80
2018-08-13T18:03:13.903Z,94.70
2018-08-13T18:05:43.127Z,94.40
2018-08-13T18:08:12.671Z,94.80
2018-08-13T18:10:42.015Z,94.60
2018-08-13T18:13:11.238Z,94.30
2018-08-13T18:15:40.423Z,95.10
2018-08-13T18:18:09.754Z,94.40
2018-08-13T18:20:41.241Z,95.10
2018-08-13T18:23:10.417Z,95.20
2018-08-13T18:25:39.695Z,95.70
2018-08-13T18:28:09.167Z,95.10
2018-08-13T18:30:38.404Z,95.10
2018-08-13T18:33:07.820Z,95.50
2018-08-13T18:35:37.097Z,95.50
2018-08-13T18:38:06.272Z,95.80
2018-08-13T18:40:35.524Z,96.20
2018-08-13T18:43:04.846Z,96.40
2018-08-13T18:45:34.157Z,96.10
2018-08-13T18:48:03.445Z,96.50
2018-08-13T18:50:32.703Z,95.80
2018-08-13T18:53:01.951Z,96.40
2018-08-13T18:55:31.221Z,96.40
2018-08-13T18:58:00.478Z,96.30
2018-08-13T19:00:30.617Z,96.40
2018-08-13T19:03:01.250Z,96.80
2018-08-13T19:05:30.624Z,97.10
2018-08-13T19:07:59.851Z,96.60
2018-08-13T19:10:36.786Z,96.80
2018-08-13T19:13:06.138Z,96.50
2018-08-13T19:15:35.328Z,96.60
2018-08-13T19:18:04.622Z,96.30
2018-08-13T19:20:34.781Z,96.10
2018-08-13T19:23:04.090Z,96.30
2018-08-13T19:25:33.570Z,96.30
2018-08-13T19:28:02.904Z,96.30
2018-08-13T19:30:32.280Z,96.30
2018-08-13T19:33:01.581Z,96.10
2018-08-13T19:35:30.797Z,96.00
2018-08-13T19:38:00.077Z,96.10
2018-08-13T19:40:29.567Z,95.90
2018-08-13T19:42:58.802Z,95.80
2018-08-13T19:45:28.085Z,95.80
2018-08-13T19:47:57.381Z,95.60
2018-08-13T19:50:26.770Z,96.00
2018-08-13T19:52:55.942Z,96.60
2018-08-13T19:55:25.256Z,96.10
2018-08-13T19:57:54.552Z,96.50
2018-08-13T20:00:28.008Z,96.60
2018-08-13T20:02:57.313Z,96.90
2018-08-13T20:05:27.710Z,96.50
2018-08-13T20:07:57.173Z,96.10
2018-08-13T20:10:26.632Z,96.20
2018-08-13T20:12:56.246Z,96.20
2018-08-13T20:15:25.516Z,96.30
2018-08-13T20:17:54.971Z,96.00
2018-08-13T20:20:24.317Z,95.60
2018-08-13T20:22:53.565Z,95.40
2018-08-13T20:25:23.071Z,95.50
2018-08-13T20:27:53.317Z,95.60
2018-08-13T20:30:23.751Z,95.50
2018-08-13T20:32:53.677Z,95.50
2018-08-13T20:35:23.399Z,95.20
2018-08-13T20:37:53.850Z,95.40
2018-08-13T20:40:24.040Z,95.40
2018-08-13T20:42:53.702Z,95.40
2018-08-13T20:45:23.140Z,95.50
2018-08-13T20:47:52.379Z,95.70
2018-08-13T20:50:23.964Z,95.80
2018-08-13T20:52:54.118Z,95.70
2018-08-13T20:55:28.043Z,95.70
2018-08-13T20:58:03.602Z,95.80
2018-08-13T21:00:33.131Z,95.70
2018-08-13T21:03:02.446Z,96.00
2018-08-13T21:05:31.679Z,95.60
2018-08-13T21:08:00.941Z,95.80
2018-08-13T21:10:30.175Z,95.80
2018-08-13T21:12:59.373Z,95.60
2018-08-13T21:15:28.599Z,95.50
2018-08-13T21:17:57.882Z,95.70
2018-08-13T21:20:29.084Z,95.70
2018-08-13T21:22:58.333Z,95.30
2018-08-13T21:25:27.597Z,95.80
2018-08-13T21:27:56.748Z,95.50
2018-08-13T21:30:26.078Z,95.40
2018-08-13T21:32:55.305Z,95.20
2018-08-13T21:35:25.433Z,95.40
2018-08-13T21:37:54.630Z,95.20
2018-08-13T21:40:23.887Z,95.30
2018-08-13T21:42:53.326Z,95.60
2018-08-13T21:45:22.439Z,95.40
2018-08-13T21:47:51.689Z,95.40
2018-08-13T21:50:22.043Z,95.40
2018-08-13T21:52:52.176Z,95.40
2018-08-13T21:55:22.485Z,95.20
2018-08-13T21:57:51.658Z,95.20
2018-08-13T22:00:30.719Z,95.20
2018-08-13T22:03:01.350Z,95.30
2018-08-13T22:05:30.543Z,95.20
2018-08-13T22:08:00.048Z,95.30
2018-08-13T22:10:29.300Z,95.00
2018-08-13T22:12:58.549Z,95.40
2018-08-13T22:18:08.519Z,95.10
2018-08-13T22:20:38.077Z,95.10
2018-08-13T22:23:08.277Z,94.70
2018-08-13T22:25:41.808Z,94.60
2018-08-13T22:28:11.969Z,94.70
2018-08-13T22:30:41.335Z,94.60
2018-08-13T22:33:11.810Z,94.60
2018-08-13T22:35:41.690Z,94.60
2018-08-13T22:38:11.044Z,94.60
2018-08-13T22:40:40.872Z,94.50
2018-08-13T22:43:10.184Z,94.70
2018-08-13T22:45:39.505Z,94.60
2018-08-13T22:48:08.881Z,94.80
2018-08-13T22:50:38.849Z,94.90
2018-08-13T22:53:08.126Z,94.90
2018-08-13T22:55:37.719Z,95.00
2018-08-13T22:58:06.991Z,95.20
2018-08-13T23:00:36.313Z,95.20
2018-08-13T23:03:06.013Z,95.00
2018-08-13T23:05:35.415Z,95.20
2018-08-13T23:08:04.688Z,95.30
2018-08-13T23:10:33.941Z,95.30
2018-08-13T23:13:03.185Z,95.20
2018-08-13T23:15:32.478Z,95.10
2018-08-13T23:18:01.698Z,95.30
2018-08-13T23:20:30.974Z,95.30
2018-08-13T23:23:03.120Z,95.60
2018-08-13T23:25:33.879Z,95.50
2018-08-13T23:28:04.367Z,95.80
2018-08-13T23:30:33.615Z,95.50
2018-08-13T23:33:02.866Z,95.60
2018-08-13T23:35:32.442Z,95.60
2018-08-13T23:38:01.650Z,95.70
2018-08-13T23:40:30.905Z,95.60
2018-08-13T23:43:00.175Z,95.80
2018-08-13T23:45:30.937Z,95.70
2018-08-13T23:48:00.234Z,95.60
2018-08-13T23:50:29.693Z,95.50
2018-08-13T23:53:00.406Z,95.50
2018-08-13T23:55:33.330Z,95.50
2018-08-13T23:58:02.910Z,95.60
